createdAt,value
2023-05-13T00:02:00.942Z,74.06
2023-05-13T00:04:27.869Z,74.21
2023-05-13T00:06:54.869Z,74.51
2023-05-13T00:09:21.753Z,73.88
2023-05-13T00:11:48.653Z,74.13
2023-05-13T00:14:15.600Z,74.64
2023-05-13T00:16:43.177Z,75.13
2023-05-13T00:19:10.449Z,75.32
2023-05-13T00:21:37.498Z,75.87
2023-05-13T00:24:05.281Z,76.23
2023-05-13T00:26:32.199Z,77.45
2023-05-13T00:28:59.148Z,77.43
2023-05-13T00:31:26.196Z,76.84
2023-05-13T00:33:53.290Z,76.80
2023-05-13T00:36:20.246Z,77.25
2023-05-13T00:38:47.169Z,77.71
2023-05-13T00:41:14.116Z,78.95
2023-05-13T00:43:41.030Z,80.58
2023-05-13T00:46:08.305Z,80.94
2023-05-13T00:48:35.429Z,81.25
2023-05-13T00:51:03.099Z,80.68
2023-05-13T00:53:33.104Z,81.31
2023-05-13T00:56:00.333Z,81.70
2023-05-13T00:58:27.312Z,81.71
2023-05-13T01:01:40.823Z,82.10
2023-05-13T01:04:44.602Z,82.38
2023-05-13T01:07:39.359Z,83.49
2023-05-13T01:10:18.261Z,85.10
2023-05-13T01:12:46.846Z,85.11
2023-05-13T01:15:25.790Z,84.74
2023-05-13T01:17:57.519Z,84.46
2023-05-13T01:20:27.115Z,85.31
2023-05-13T01:22:54.614Z,86.44
2023-05-13T01:25:21.517Z,86.47
2023-05-13T01:27:49.701Z,86.22
2023-05-13T01:30:17.771Z,88.02
2023-05-13T01:32:45.354Z,89.65
2023-05-13T01:35:12.843Z,89.95
2023-05-13T01:37:44.417Z,89.56
2023-05-13T01:40:28.140Z,90.74
2023-05-13T01:43:01.606Z,91.05
2023-05-13T01:45:30.142Z,90.90
2023-05-13T01:47:57.744Z,91.04
2023-05-13T01:50:26.688Z,91.77
2023-05-13T01:52:53.908Z,91.38
2023-05-13T01:55:20.963Z,91.66
2023-05-13T01:57:49.150Z,93.15
2023-05-13T02:00:16.597Z,94.21
2023-05-13T02:02:43.530Z,96.01
2023-05-13T02:05:10.651Z,96.08
2023-05-13T02:07:38.506Z,98.56
2023-05-13T02:10:06.237Z,99.60
2023-05-13T02:12:33.386Z,100.00
2023-05-13T02:15:00.303Z,100.00
2023-05-13T02:17:27.293Z,100.00
2023-05-13T02:19:54.349Z,100.00
2023-05-13T02:22:21.297Z,100.00
2023-05-13T02:24:48.370Z,100.00
2023-05-13T02:27:16.442Z,100.00
2023-05-13T02:29:43.402Z,100.00
2023-05-13T02:32:11.257Z,100.00
2023-05-13T02:34:38.324Z,100.00
2023-05-13T02:37:05.902Z,100.00
2023-05-13T02:39:36.891Z,100.00
2023-05-13T02:42:04.927Z,100.00
2023-05-13T02:44:32.847Z,100.00
2023-05-13T02:47:00.983Z,100.00
2023-05-13T02:49:28.104Z,100.00
2023-05-13T02:51:55.359Z,100.00
2023-05-13T02:54:29.384Z,100.00
2023-05-13T02:56:56.279Z,100.00
2023-05-13T02:59:23.325Z,100.00
2023-05-13T03:01:50.396Z,100.00
2023-05-13T03:04:17.468Z,100.00
2023-05-13T03:06:46.448Z,100.00
2023-05-13T03:09:13.510Z,100.00
2023-05-13T03:11:40.399Z,100.00
2023-05-13T03:14:07.329Z,100.00
2023-05-13T03:16:34.336Z,100.00
2023-05-13T03:19:01.348Z,100.00
2023-05-13T03:21:28.354Z,100.00
2023-05-13T03:23:55.376Z,100.00
2023-05-13T03:26:22.342Z,100.00
2023-05-13T03:28:49.341Z,100.00
2023-05-13T03:31:17.288Z,100.00
2023-05-13T03:33:44.434Z,100.00
2023-05-13T03:36:12.321Z,100.00
2023-05-13T03:38:39.217Z,100.00
2023-05-13T03:41:06.160Z,100.00
2023-05-13T03:43:33.970Z,100.00
2023-05-13T03:46:03.656Z,100.00
2023-05-13T03:48:31.054Z,100.00
2023-05-13T03:51:01.657Z,100.00
2023-05-13T03:53:29.408Z,100.00
2023-05-13T03:55:56.314Z,100.00
2023-05-13T03:58:23.417Z,100.00
2023-05-13T04:00:50.378Z,100.00
2023-05-13T04:03:18.159Z,100.00
2023-05-13T04:05:46.730Z,100.00
2023-05-13T04:08:14.074Z,100.00
2023-05-13T04:10:41.381Z,100.00
2023-05-13T04:13:08.373Z,100.00
2023-05-13T04:15:35.260Z,100.00
2023-05-13T04:18:02.334Z,100.00
2023-05-13T04:20:29.452Z,100.00
2023-05-13T04:22:56.815Z,100.00
2023-05-13T04:25:23.812Z,100.00
2023-05-13T04:27:50.910Z,100.00
2023-05-13T04:30:29.776Z,100.00
2023-05-13T04:32:57.386Z,100.00
2023-05-13T04:35:24.818Z,100.00
2023-05-13T04:37:55.591Z,100.00
2023-05-13T04:40:23.403Z,100.00
2023-05-13T04:42:55.050Z,100.00
2023-05-13T04:45:31.651Z,100.00
2023-05-13T04:47:58.794Z,100.00
2023-05-13T04:50:26.087Z,100.00
2023-05-13T04:52:54.875Z,100.00
2023-05-13T04:55:22.970Z,100.00
2023-05-13T04:57:50.367Z,100.00
2023-05-13T05:00:17.980Z,100.00
2023-05-13T05:02:46.935Z,100.00
2023-05-13T05:05:15.093Z,100.00
2023-05-13T05:07:43.634Z,100.00
2023-05-13T05:10:10.978Z,100.00
2023-05-13T05:12:42.518Z,100.00
2023-05-13T05:15:15.854Z,100.00
2023-05-13T05:17:45.564Z,98.63
2023-05-13T05:20:13.584Z,95.81
2023-05-13T05:22:42.114Z,95.52
2023-05-13T05:25:11.690Z,94.97
2023-05-13T05:27:38.896Z,95.32
2023-05-13T05:30:06.964Z,93.16
2023-05-13T05:32:35.606Z,90.45
2023-05-13T05:35:04.301Z,89.96
2023-05-13T05:37:32.608Z,90.64
2023-05-13T05:39:59.591Z,88.98
2023-05-13T05:42:27.517Z,89.35
2023-05-13T05:44:54.430Z,87.75
2023-05-13T05:47:21.349Z,86.88
2023-05-13T05:49:48.277Z,86.09
2023-05-13T05:52:16.193Z,86.12
2023-05-13T05:54:43.567Z,85.56
2023-05-13T05:57:10.574Z,84.50
2023-05-13T05:59:37.689Z,83.64
2023-05-13T06:02:04.708Z,81.67
2023-05-13T06:04:31.786Z,82.34
2023-05-13T06:06:58.807Z,83.10
2023-05-13T06:09:26.095Z,82.53
2023-05-13T06:11:53.613Z,81.20
2023-05-13T06:14:20.578Z,80.77
2023-05-13T06:16:47.504Z,79.01
2023-05-13T06:19:16.885Z,77.87
2023-05-13T06:21:45.073Z,77.84
2023-05-13T06:24:12.066Z,77.30
2023-05-13T06:26:40.541Z,76.64
2023-05-13T06:29:07.558Z,77.29
2023-05-13T06:31:34.511Z,75.88
2023-05-13T06:34:02.374Z,76.19
2023-05-13T06:36:29.264Z,75.96
2023-05-13T06:38:56.424Z,76.80
2023-05-13T06:41:24.688Z,76.25
2023-05-13T06:43:55.311Z,76.40
2023-05-13T06:46:23.121Z,76.34
2023-05-13T06:48:52.297Z,76.87
2023-05-13T06:51:19.325Z,75.87
2023-05-13T06:53:46.319Z,76.25
2023-05-13T06:56:13.217Z,74.41
2023-05-13T06:58:40.123Z,74.17
2023-05-13T07:01:07.109Z,74.36
2023-05-13T07:03:34.122Z,74.91
2023-05-13T07:06:01.925Z,73.25
2023-05-13T07:08:28.852Z,70.87
2023-05-13T07:10:55.818Z,72.11
2023-05-13T07:13:22.837Z,69.43
2023-05-13T07:15:50.037Z,68.46
2023-05-13T07:18:17.001Z,67.26
2023-05-13T07:20:44.201Z,67.72
2023-05-13T07:23:11.078Z,66.16
2023-05-13T07:25:38.160Z,64.18
2023-05-13T07:28:05.113Z,62.65
2023-05-13T07:30:32.080Z,64.65
2023-05-13T07:32:59.024Z,63.65
2023-05-13T07:35:26.129Z,64.23
2023-05-13T07:37:53.147Z,63.78
2023-05-13T07:40:21.152Z,64.47
2023-05-13T07:42:48.626Z,61.86
2023-05-13T07:45:15.521Z,61.77
2023-05-13T07:47:44.597Z,61.87
2023-05-13T07:50:11.787Z,59.74
2023-05-13T07:52:38.830Z,61.83
2023-05-13T07:55:06.381Z,61.42
2023-05-13T07:57:33.980Z,61.17
2023-05-13T08:00:01.038Z,60.65
2023-05-13T08:02:28.100Z,58.51
2023-05-13T08:04:55.245Z,58.95
2023-05-13T08:07:22.119Z,58.36
2023-05-13T08:09:49.070Z,58.10
2023-05-13T08:12:16.023Z,56.94
2023-05-13T08:14:42.946Z,58.43
2023-05-13T08:17:09.900Z,58.52
2023-05-13T08:19:37.049Z,59.16
2023-05-13T08:22:04.518Z,57.70
2023-05-13T08:24:31.543Z,58.58
2023-05-13T08:26:58.452Z,58.19
2023-05-13T08:29:25.522Z,57.77
2023-05-13T08:31:53.726Z,55.99
2023-05-13T08:34:21.003Z,58.44
2023-05-13T08:36:47.999Z,56.86
2023-05-13T08:39:15.000Z,57.26
2023-05-13T08:41:44.378Z,55.53
2023-05-13T08:44:16.032Z,55.05
2023-05-13T08:46:52.037Z,56.48
2023-05-13T08:49:18.960Z,56.35
2023-05-13T08:51:46.647Z,55.75
2023-05-13T08:54:16.436Z,54.36
2023-05-13T08:56:43.346Z,54.41
2023-05-13T08:59:10.572Z,54.73
2023-05-13T09:01:38.220Z,55.04
2023-05-13T09:04:08.791Z,55.56
2023-05-13T09:06:35.770Z,55.18
2023-05-13T09:09:06.431Z,55.46
2023-05-13T09:11:33.998Z,54.40
2023-05-13T09:14:05.573Z,55.35
2023-05-13T09:16:32.975Z,54.02
2023-05-13T09:19:05.320Z,52.87
2023-05-13T09:21:36.021Z,53.16
2023-05-13T09:24:21.384Z,52.74
2023-05-13T09:26:50.981Z,51.41
2023-05-13T09:29:31.192Z,50.28
2023-05-13T09:32:01.197Z,49.21
2023-05-13T09:34:37.267Z,51.55
2023-05-13T09:37:06.985Z,51.67
2023-05-13T09:39:40.207Z,49.87
2023-05-13T09:42:18.942Z,50.43
2023-05-13T09:44:47.395Z,49.10
2023-05-13T09:47:15.118Z,49.19
2023-05-13T09:49:44.962Z,48.69
2023-05-13T09:52:12.134Z,50.30
2023-05-13T09:54:39.189Z,48.96
2023-05-13T09:57:06.506Z,47.14
2023-05-13T09:59:36.522Z,47.99
2023-05-13T10:02:06.840Z,47.93
2023-05-13T10:04:34.147Z,48.43
2023-05-13T10:07:04.227Z,46.70
2023-05-13T10:09:37.927Z,49.03
2023-05-13T10:12:08.553Z,47.08
2023-05-13T10:14:38.030Z,47.22
2023-05-13T10:17:05.738Z,45.83
2023-05-13T10:19:33.666Z,45.73
2023-05-13T10:22:01.488Z,44.43
2023-05-13T10:24:29.495Z,45.15
2023-05-13T10:26:58.025Z,45.90
2023-05-13T10:29:26.564Z,45.53
2023-05-13T10:31:54.554Z,44.72
2023-05-13T10:34:23.036Z,45.61
2023-05-13T10:37:19.562Z,45.89
2023-05-13T10:40:06.241Z,42.85
2023-05-13T10:42:43.270Z,45.00
2023-05-13T10:45:11.282Z,44.14
2023-05-13T10:47:39.241Z,46.85
2023-05-13T10:50:39.192Z,43.58
2023-05-13T10:53:12.490Z,44.72
2023-05-13T10:55:48.088Z,44.09
2023-05-13T10:58:16.769Z,43.76
2023-05-13T11:00:46.409Z,44.14
2023-05-13T11:03:20.441Z,43.56
2023-05-13T11:06:04.672Z,44.71
2023-05-13T11:08:48.892Z,42.87
2023-05-13T11:11:22.411Z,44.61
2023-05-13T11:14:02.638Z,44.58
2023-05-13T11:16:29.852Z,43.96
2023-05-13T11:18:56.931Z,43.25
2023-05-13T11:21:36.197Z,42.98
2023-05-13T11:24:05.900Z,43.08
2023-05-13T11:26:48.445Z,43.49
2023-05-13T11:29:27.608Z,44.31
2023-05-13T11:31:59.255Z,45.67
2023-05-13T11:34:27.415Z,40.74
2023-05-13T11:37:03.418Z,41.09
2023-05-13T11:39:31.888Z,41.64
2023-05-13T11:42:01.641Z,42.71
2023-05-13T11:44:28.847Z,41.63
2023-05-13T11:46:59.116Z,42.72
2023-05-13T11:49:45.448Z,42.82
2023-05-13T11:52:15.144Z,43.37
2023-05-13T11:54:49.279Z,42.04
2023-05-13T11:57:32.446Z,41.06
2023-05-13T12:00:07.528Z,41.41
2023-05-13T12:02:38.562Z,40.95
2023-05-13T12:05:08.159Z,40.40
2023-05-13T12:07:35.755Z,40.47
2023-05-13T12:10:06.074Z,39.13
2023-05-13T12:12:39.959Z,39.29
2023-05-13T12:15:10.975Z,39.75
2023-05-13T12:17:38.601Z,41.44
2023-05-13T12:20:27.592Z,41.01
2023-05-13T12:22:57.036Z,40.89
2023-05-13T12:25:45.344Z,41.11
2023-05-13T12:28:18.898Z,41.21
2023-05-13T12:30:59.700Z,40.78
2023-05-13T12:33:31.850Z,40.11
2023-05-13T12:36:20.188Z,38.31
2023-05-13T12:39:05.685Z,39.17
2023-05-13T12:41:38.604Z,38.92
2023-05-13T12:44:09.805Z,40.86
2023-05-13T12:46:37.565Z,37.54
2023-05-13T12:49:05.997Z,37.50
2023-05-13T12:51:34.168Z,37.08
2023-05-13T12:54:01.666Z,36.44
2023-05-13T12:56:28.619Z,38.40
2023-05-13T12:58:55.815Z,37.74
2023-05-13T13:01:22.986Z,38.12
2023-05-13T13:03:50.365Z,39.56
2023-05-13T13:06:17.937Z,39.13
2023-05-13T13:08:44.887Z,39.76
2023-05-13T13:11:18.263Z,39.18
2023-05-13T13:13:49.750Z,41.33
2023-05-13T13:16:16.689Z,42.04
2023-05-13T13:18:44.652Z,40.91
2023-05-13T13:21:11.735Z,41.70
2023-05-13T13:23:38.716Z,43.07
2023-05-13T13:26:05.677Z,42.52
2023-05-13T13:28:32.727Z,39.96
2023-05-13T13:31:00.160Z,41.43
2023-05-13T13:33:27.336Z,41.92
2023-05-13T13:35:55.643Z,42.23
2023-05-13T13:38:22.551Z,42.60
2023-05-13T13:40:49.561Z,43.28
2023-05-13T13:43:16.464Z,43.38
2023-05-13T13:45:43.444Z,43.17
2023-05-13T13:48:10.403Z,42.48
2023-05-13T13:50:37.366Z,41.71
2023-05-13T13:53:04.479Z,41.93
2023-05-13T13:55:31.447Z,42.63
2023-05-13T13:57:58.411Z,39.63
2023-05-13T14:00:25.363Z,38.75
2023-05-13T14:02:52.487Z,39.69
2023-05-13T14:05:19.626Z,40.68
2023-05-13T14:07:49.394Z,40.17
2023-05-13T14:10:16.408Z,38.86
2023-05-13T14:12:43.324Z,37.91
2023-05-13T14:15:10.844Z,39.09
2023-05-13T14:17:37.965Z,40.38
2023-05-13T14:20:06.515Z,38.79
2023-05-13T14:22:33.449Z,38.17
2023-05-13T14:25:01.327Z,39.02
2023-05-13T14:27:29.221Z,38.31
2023-05-13T14:29:56.123Z,38.41
2023-05-13T14:32:23.028Z,38.37
2023-05-13T14:34:50.002Z,37.78
2023-05-13T14:37:16.933Z,39.11
2023-05-13T14:39:44.117Z,38.20
2023-05-13T14:42:11.589Z,39.23
2023-05-13T14:44:38.679Z,39.61
2023-05-13T14:47:06.549Z,40.24
2023-05-13T14:49:33.486Z,40.84
2023-05-13T14:52:00.440Z,42.13
2023-05-13T14:54:27.462Z,41.30
2023-05-13T14:56:54.445Z,41.75
2023-05-13T14:59:21.439Z,42.07
2023-05-13T15:01:48.346Z,42.88
2023-05-13T15:04:15.331Z,42.41
2023-05-13T15:06:42.282Z,42.97
2023-05-13T15:09:09.202Z,42.26
2023-05-13T15:11:37.222Z,42.66
2023-05-13T15:14:04.212Z,42.78
2023-05-13T15:16:31.426Z,43.10
2023-05-13T15:18:58.432Z,43.01
2023-05-13T15:21:25.339Z,43.28
2023-05-13T15:23:52.203Z,43.56
2023-05-13T15:26:19.258Z,43.13
2023-05-13T15:28:46.146Z,43.40
2023-05-13T15:31:13.141Z,42.62
2023-05-13T15:33:40.200Z,41.96
2023-05-13T15:36:09.765Z,41.01
2023-05-13T15:38:37.499Z,41.96
2023-05-13T15:41:04.614Z,40.69
2023-05-13T15:43:31.949Z,38.57
2023-05-13T15:45:59.667Z,37.74
2023-05-13T15:48:27.195Z,39.55
2023-05-13T15:50:54.560Z,40.81
2023-05-13T15:53:21.537Z,38.71
2023-05-13T15:55:48.674Z,37.54
2023-05-13T15:58:15.633Z,36.79
2023-05-13T16:00:43.081Z,36.82
2023-05-13T16:03:10.184Z,37.57
2023-05-13T16:05:38.579Z,38.55
2023-05-13T16:08:05.542Z,38.85
2023-05-13T16:10:33.781Z,39.63
2023-05-13T16:13:02.518Z,39.52
2023-05-13T16:15:29.493Z,38.70
2023-05-13T16:17:56.546Z,39.71
2023-05-13T16:20:23.858Z,39.65
2023-05-13T16:22:51.028Z,40.42
2023-05-13T16:25:18.291Z,39.83
2023-05-13T16:27:45.213Z,40.43
2023-05-13T16:30:12.753Z,39.85
2023-05-13T16:32:39.835Z,40.08
2023-05-13T16:35:07.916Z,39.98
2023-05-13T16:37:35.396Z,39.41
2023-05-13T16:40:02.847Z,39.53
2023-05-13T16:42:29.773Z,38.95
2023-05-13T16:44:56.710Z,39.66
2023-05-13T16:47:23.703Z,37.83
2023-05-13T16:49:50.969Z,38.36
2023-05-13T16:52:18.079Z,37.60
2023-05-13T16:54:45.146Z,36.37
2023-05-13T16:57:12.252Z,36.77
2023-05-13T16:59:39.187Z,36.48
2023-05-13T17:02:07.399Z,37.47
2023-05-13T17:04:34.767Z,37.41
2023-05-13T17:07:02.566Z,36.29
2023-05-13T17:09:30.918Z,36.60
2023-05-13T17:12:01.035Z,37.38
2023-05-13T17:14:27.982Z,36.96
2023-05-13T17:16:55.018Z,36.70
2023-05-13T17:19:22.099Z,36.92
2023-05-13T17:21:49.067Z,36.76
2023-05-13T17:24:16.037Z,37.00
2023-05-13T17:26:42.923Z,36.37
2023-05-13T17:29:09.989Z,35.64
2023-05-13T17:31:36.969Z,35.34
2023-05-13T17:34:04.106Z,35.50
2023-05-13T17:36:32.612Z,35.51
2023-05-13T17:38:59.584Z,35.30
2023-05-13T17:41:26.465Z,35.50
2023-05-13T17:43:53.481Z,35.73
2023-05-13T17:46:20.935Z,35.96
2023-05-13T17:48:47.964Z,36.55
2023-05-13T17:51:15.113Z,36.40
2023-05-13T17:53:42.120Z,36.94
2023-05-13T17:56:10.382Z,37.11
2023-05-13T17:58:37.350Z,36.95
2023-05-13T18:01:04.347Z,36.81
2023-05-13T18:03:31.264Z,36.61
2023-05-13T18:05:58.261Z,37.46
2023-05-13T18:08:25.227Z,37.41
2023-05-13T18:10:52.137Z,37.95
2023-05-13T18:13:19.084Z,38.20
2023-05-13T18:15:46.051Z,38.22
2023-05-13T18:18:13.447Z,37.68
2023-05-13T18:20:41.968Z,38.24
2023-05-13T18:23:08.973Z,38.86
2023-05-13T18:25:42.603Z,38.83
2023-05-13T18:28:19.241Z,38.44
2023-05-13T18:30:46.208Z,38.47
2023-05-13T18:33:13.103Z,39.10
2023-05-13T18:35:40.525Z,38.50
2023-05-13T18:38:07.493Z,38.63
2023-05-13T18:40:34.415Z,39.45
2023-05-13T18:43:01.366Z,39.75
2023-05-13T18:45:28.398Z,39.61
2023-05-13T18:47:55.364Z,40.30
2023-05-13T18:50:22.698Z,41.64
2023-05-13T18:52:49.950Z,42.74
2023-05-13T18:55:17.019Z,43.62
2023-05-13T18:57:43.960Z,44.26
2023-05-13T19:00:11.756Z,45.05
2023-05-13T19:02:39.004Z,45.80
2023-05-13T19:05:07.011Z,45.97
2023-05-13T19:07:34.056Z,45.79
2023-05-13T19:10:00.956Z,46.09
2023-05-13T19:12:28.021Z,46.84
2023-05-13T19:14:54.932Z,47.94
2023-05-13T19:17:21.928Z,48.34
2023-05-13T19:19:48.912Z,46.98
2023-05-13T19:22:15.868Z,46.17
2023-05-13T19:24:42.888Z,45.68
2023-05-13T19:27:10.098Z,46.53
2023-05-13T19:29:37.064Z,47.18
2023-05-13T19:32:04.104Z,47.15
2023-05-13T19:34:31.067Z,47.97
2023-05-13T19:36:58.087Z,48.00
2023-05-13T19:39:25.024Z,48.78
2023-05-13T19:41:51.882Z,49.20
2023-05-13T19:44:18.888Z,50.51
2023-05-13T19:46:46.721Z,53.66
2023-05-13T19:49:13.685Z,55.12
2023-05-13T19:51:40.561Z,55.50
2023-05-13T19:54:09.466Z,56.09
2023-05-13T19:56:36.432Z,56.38
2023-05-13T19:59:03.508Z,57.19
2023-05-13T20:01:31.927Z,57.34
2023-05-13T20:03:59.350Z,55.42
2023-05-13T20:06:26.730Z,54.18
2023-05-13T20:08:53.686Z,55.61
2023-05-13T20:11:20.711Z,56.76
2023-05-13T20:13:47.609Z,58.14
2023-05-13T20:16:15.160Z,55.87
2023-05-13T20:18:42.200Z,57.43
2023-05-13T20:21:09.140Z,58.68
2023-05-13T20:23:36.120Z,59.60
2023-05-13T20:26:02.966Z,60.60
2023-05-13T20:28:30.134Z,61.38
2023-05-13T20:30:57.162Z,61.20
2023-05-13T20:33:24.067Z,61.36
2023-05-13T20:35:50.988Z,61.86
2023-05-13T20:38:18.149Z,62.17
2023-05-13T20:40:45.055Z,62.58
2023-05-13T20:43:12.173Z,63.42
2023-05-13T20:45:40.053Z,63.08
2023-05-13T20:48:07.825Z,63.12
2023-05-13T20:50:36.108Z,63.07
2023-05-13T20:53:03.036Z,61.21
2023-05-13T20:55:30.028Z,59.93
2023-05-13T20:57:56.948Z,59.92
2023-05-13T21:00:24.194Z,60.49
2023-05-13T21:02:53.017Z,61.18
2023-05-13T21:05:20.308Z,60.82
2023-05-13T21:07:47.382Z,61.05
2023-05-13T21:10:14.282Z,61.49
2023-05-13T21:12:41.290Z,61.55
2023-05-13T21:15:09.264Z,61.19
2023-05-13T21:17:36.181Z,60.66
2023-05-13T21:20:04.108Z,60.47
2023-05-13T21:22:31.108Z,61.15
2023-05-13T21:24:58.169Z,60.23
2023-05-13T21:27:25.158Z,61.01
2023-05-13T21:29:52.099Z,63.38
2023-05-13T21:32:19.031Z,61.73
2023-05-13T21:34:45.958Z,62.73
2023-05-13T21:37:12.867Z,63.47
2023-05-13T21:39:39.801Z,61.77
2023-05-13T21:42:06.784Z,64.57
2023-05-13T21:44:33.797Z,65.87
2023-05-13T21:47:00.896Z,62.40
2023-05-13T21:49:27.800Z,61.14
2023-05-13T21:51:54.750Z,60.53
2023-05-13T21:54:21.644Z,63.99
2023-05-13T21:56:48.649Z,61.76
2023-05-13T21:59:15.773Z,62.77
2023-05-13T22:01:42.720Z,63.37
2023-05-13T22:04:09.736Z,64.26
2023-05-13T22:06:36.660Z,66.49
2023-05-13T22:09:03.618Z,66.38
2023-05-13T22:11:30.720Z,66.11
2023-05-13T22:14:00.301Z,65.07
2023-05-13T22:16:27.307Z,64.87
2023-05-13T22:18:58.582Z,65.48
2023-05-13T22:21:25.808Z,65.49
2023-05-13T22:23:52.796Z,64.54
2023-05-13T22:26:19.794Z,65.32
2023-05-13T22:28:48.491Z,66.66
2023-05-13T22:31:18.487Z,66.88
2023-05-13T22:33:45.565Z,67.18
2023-05-13T22:36:12.645Z,67.13
2023-05-13T22:38:39.694Z,67.56
2023-05-13T22:41:06.641Z,67.66
2023-05-13T22:43:33.547Z,67.15
2023-05-13T22:46:00.562Z,67.36
2023-05-13T22:48:27.564Z,67.59
2023-05-13T22:50:56.939Z,68.32
2023-05-13T22:53:24.480Z,68.77
2023-05-13T22:55:52.216Z,69.00
2023-05-13T22:58:21.022Z,68.77
2023-05-13T23:00:49.461Z,70.73
2023-05-13T23:03:16.378Z,71.01
2023-05-13T23:05:43.478Z,70.36
2023-05-13T23:08:10.541Z,71.82
2023-05-13T23:10:37.491Z,71.68
2023-05-13T23:13:05.726Z,72.43
2023-05-13T23:15:33.263Z,73.39
2023-05-13T23:18:00.208Z,74.91
2023-05-13T23:20:27.278Z,75.40
2023-05-13T23:22:55.383Z,76.29
2023-05-13T23:25:22.389Z,76.86
2023-05-13T23:27:51.585Z,76.84
2023-05-13T23:30:18.636Z,76.12
2023-05-13T23:32:46.092Z,75.16
2023-05-13T23:35:13.337Z,75.03
2023-05-13T23:37:40.314Z,75.84
2023-05-13T23:40:08.113Z,76.22
2023-05-13T23:42:35.079Z,76.71
2023-05-13T23:45:02.003Z,77.13
2023-05-13T23:47:30.014Z,77.23
2023-05-13T23:49:58.023Z,76.95
2023-05-13T23:52:25.092Z,76.57
2023-05-13T23:54:51.998Z,76.84
2023-05-13T23:57:19.055Z,76.57
2023-05-13T23:59:46.280Z,76.88
